sensor_id;sensor_type;location;lat;lon;timestamp;temperature;humidity
30063;DHT22;16889;67.864;24.990;2023-09-19T00:03:55;6.40;99.90
30063;DHT22;16889;67.864;24.990;2023-09-19T00:08:41;6.30;99.90
30063;DHT22;16889;67.864;24.990;2023-09-19T00:13:30;6.20;99.90
30063;DHT22;16889;67.864;24.990;2023-09-19T00:18:20;6.30;99.90
30063;DHT22;16889;67.864;24.990;2023-09-19T00:23:09;6.10;99.90
30063;DHT22;16889;67.864;24.990;2023-09-19T00:27:55;6.00;99.90
30063;DHT22;16889;67.864;24.990;2023-09-19T00:32:42;5.80;99.90
30063;DHT22;16889;67.864;24.990;2023-09-19T00:37:28;5.70;99.90
30063;DHT22;16889;67.864;24.990;2023-09-19T00:42:20;5.70;99.90
30063;DHT22;16889;67.864;24.990;2023-09-19T00:47:06;5.60;99.90
30063;DHT22;16889;67.864;24.990;2023-09-19T00:51:55;5.60;99.90
30063;DHT22;16889;67.864;24.990;2023-09-19T00:56:41;5.60;99.90
30063;DHT22;16889;67.864;24.990;2023-09-19T01:01:28;5.60;99.90
30063;DHT22;16889;67.864;24.990;2023-09-19T01:06:14;5.60;99.90
30063;DHT22;16889;67.864;24.990;2023-09-19T01:11:27;5.50;99.90
30063;DHT22;16889;67.864;24.990;2023-09-19T01:16:28;5.30;99.90
30063;DHT22;16889;67.864;24.990;2023-09-19T01:21:46;5.30;99.90
30063;DHT22;16889;67.864;24.990;2023-09-19T01:32:02;5.50;99.90
30063;DHT22;16889;67.864;24.990;2023-09-19T01:36:50;5.70;99.90
30063;DHT22;16889;67.864;24.990;2023-09-19T01:42:12;5.70;99.90
30063;DHT22;16889;67.864;24.990;2023-09-19T01:47:07;5.80;99.90
30063;DHT22;16889;67.864;24.990;2023-09-19T01:52:14;5.80;99.90
30063;DHT22;16889;67.864;24.990;2023-09-19T01:57:35;5.90;99.90
30063;DHT22;16889;67.864;24.990;2023-09-19T02:02:23;5.70;99.90
30063;DHT22;16889;67.864;24.990;2023-09-19T02:07:10;5.60;99.90
30063;DHT22;16889;67.864;24.990;2023-09-19T02:11:56;5.70;99.90
30063;DHT22;16889;67.864;24.990;2023-09-19T02:16:42;5.70;99.90
30063;DHT22;16889;67.864;24.990;2023-09-19T02:21:28;5.70;99.90
30063;DHT22;16889;67.864;24.990;2023-09-19T02:26:15;5.70;99.90
30063;DHT22;16889;67.864;24.990;2023-09-19T02:31:01;5.70;99.90
30063;DHT22;16889;67.864;24.990;2023-09-19T02:35:48;5.70;99.90
30063;DHT22;16889;67.864;24.990;2023-09-19T02:40:34;5.70;99.90
30063;DHT22;16889;67.864;24.990;2023-09-19T02:45:21;5.60;99.90
30063;DHT22;16889;67.864;24.990;2023-09-19T02:50:08;5.70;99.90
30063;DHT22;16889;67.864;24.990;2023-09-19T02:54:57;5.80;99.90
30063;DHT22;16889;67.864;24.990;2023-09-19T02:59:43;5.80;99.90
30063;DHT22;16889;67.864;24.990;2023-09-19T03:04:30;6.00;99.90
30063;DHT22;16889;67.864;24.990;2023-09-19T03:09:16;6.10;99.90
30063;DHT22;16889;67.864;24.990;2023-09-19T03:14:02;6.10;99.90
30063;DHT22;16889;67.864;24.990;2023-09-19T03:18:48;6.20;99.90
30063;DHT22;16889;67.864;24.990;2023-09-19T03:23:34;6.20;99.90
30063;DHT22;16889;67.864;24.990;2023-09-19T03:28:20;6.30;99.90
30063;DHT22;16889;67.864;24.990;2023-09-19T03:33:07;6.30;99.90
30063;DHT22;16889;67.864;24.990;2023-09-19T03:37:53;6.30;99.90
30063;DHT22;16889;67.864;24.990;2023-09-19T03:42:40;6.40;99.90
30063;DHT22;16889;67.864;24.990;2023-09-19T03:47:26;6.40;99.90
30063;DHT22;16889;67.864;24.990;2023-09-19T03:52:12;6.40;99.90
30063;DHT22;16889;67.864;24.990;2023-09-19T03:56:58;6.50;99.90
30063;DHT22;16889;67.864;24.990;2023-09-19T04:01:44;6.60;99.90
30063;DHT22;16889;67.864;24.990;2023-09-19T04:06:30;6.40;99.90
30063;DHT22;16889;67.864;24.990;2023-09-19T04:11:17;6.40;99.90
30063;DHT22;16889;67.864;24.990;2023-09-19T04:16:03;6.40;99.90
30063;DHT22;16889;67.864;24.990;2023-09-19T04:20:55;6.50;99.90
30063;DHT22;16889;67.864;24.990;2023-09-19T04:25:41;6.40;99.90
30063;DHT22;16889;67.864;24.990;2023-09-19T04:30:28;6.50;99.90
30063;DHT22;16889;67.864;24.990;2023-09-19T04:35:14;6.50;99.90
30063;DHT22;16889;67.864;24.990;2023-09-19T04:40:00;6.60;99.90
30063;DHT22;16889;67.864;24.990;2023-09-19T04:44:46;6.70;99.90
30063;DHT22;16889;67.864;24.990;2023-09-19T04:49:34;6.70;99.90
30063;DHT22;16889;67.864;24.990;2023-09-19T04:54:20;6.70;99.90
30063;DHT22;16889;67.864;24.990;2023-09-19T04:59:07;6.70;99.90
30063;DHT22;16889;67.864;24.990;2023-09-19T05:03:56;6.80;99.90
30063;DHT22;16889;67.864;24.990;2023-09-19T05:08:42;6.90;99.90
30063;DHT22;16889;67.864;24.990;2023-09-19T05:13:28;6.90;99.90
30063;DHT22;16889;67.864;24.990;2023-09-19T05:18:14;7.00;99.90
30063;DHT22;16889;67.864;24.990;2023-09-19T05:23:04;7.10;99.90
30063;DHT22;16889;67.864;24.990;2023-09-19T05:27:53;7.00;99.90
30063;DHT22;16889;67.864;24.990;2023-09-19T05:32:39;7.00;99.90
30063;DHT22;16889;67.864;24.990;2023-09-19T05:37:25;7.00;99.90
30063;DHT22;16889;67.864;24.990;2023-09-19T05:42:11;7.10;99.90
30063;DHT22;16889;67.864;24.990;2023-09-19T05:46:57;7.00;99.90
30063;DHT22;16889;67.864;24.990;2023-09-19T05:51:43;7.00;99.90
30063;DHT22;16889;67.864;24.990;2023-09-19T05:56:29;7.10;99.90
30063;DHT22;16889;67.864;24.990;2023-09-19T06:01:15;7.10;99.90
30063;DHT22;16889;67.864;24.990;2023-09-19T06:06:01;7.10;99.90
30063;DHT22;16889;67.864;24.990;2023-09-19T06:10:47;7.00;99.90
30063;DHT22;16889;67.864;24.990;2023-09-19T06:15:34;6.90;99.90
30063;DHT22;16889;67.864;24.990;2023-09-19T06:20:22;7.10;99.90
30063;DHT22;16889;67.864;24.990;2023-09-19T06:25:10;7.00;99.90
30063;DHT22;16889;67.864;24.990;2023-09-19T06:30:05;7.00;99.90
30063;DHT22;16889;67.864;24.990;2023-09-19T06:34:52;7.00;99.90
30063;DHT22;16889;67.864;24.990;2023-09-19T06:39:40;7.00;99.90
30063;DHT22;16889;67.864;24.990;2023-09-19T06:44:27;7.00;99.90
30063;DHT22;16889;67.864;24.990;2023-09-19T06:49:15;7.00;99.90
30063;DHT22;16889;67.864;24.990;2023-09-19T06:54:01;7.00;99.90
30063;DHT22;16889;67.864;24.990;2023-09-19T06:58:47;7.00;99.90
30063;DHT22;16889;67.864;24.990;2023-09-19T07:03:33;6.90;99.90
30063;DHT22;16889;67.864;24.990;2023-09-19T07:08:19;7.00;99.90
30063;DHT22;16889;67.864;24.990;2023-09-19T07:13:06;6.90;99.90
30063;DHT22;16889;67.864;24.990;2023-09-19T07:17:56;6.90;99.90
30063;DHT22;16889;67.864;24.990;2023-09-19T07:22:42;6.90;99.90
30063;DHT22;16889;67.864;24.990;2023-09-19T07:27:28;7.00;99.90
30063;DHT22;16889;67.864;24.990;2023-09-19T07:32:14;7.00;99.90
30063;DHT22;16889;67.864;24.990;2023-09-19T07:37:02;6.90;99.90
30063;DHT22;16889;67.864;24.990;2023-09-19T07:41:48;6.90;99.90
30063;DHT22;16889;67.864;24.990;2023-09-19T07:46:35;7.00;99.90
30063;DHT22;16889;67.864;24.990;2023-09-19T07:51:21;7.10;99.90
30063;DHT22;16889;67.864;24.990;2023-09-19T07:56:08;7.10;99.90
30063;DHT22;16889;67.864;24.990;2023-09-19T08:00:55;7.10;99.90
30063;DHT22;16889;67.864;24.990;2023-09-19T08:05:41;7.00;99.90
30063;DHT22;16889;67.864;24.990;2023-09-19T08:10:29;7.00;99.90
30063;DHT22;16889;67.864;24.990;2023-09-19T08:15:20;7.00;99.90
30063;DHT22;16889;67.864;24.990;2023-09-19T08:20:07;7.20;99.90
30063;DHT22;16889;67.864;24.990;2023-09-19T08:25:01;7.30;99.90
30063;DHT22;16889;67.864;24.990;2023-09-19T08:29:47;7.30;99.90
30063;DHT22;16889;67.864;24.990;2023-09-19T08:34:33;7.30;99.90
30063;DHT22;16889;67.864;24.990;2023-09-19T08:39:19;7.30;99.90
30063;DHT22;16889;67.864;24.990;2023-09-19T08:44:05;7.20;99.90
30063;DHT22;16889;67.864;24.990;2023-09-19T08:48:54;7.20;99.90
30063;DHT22;16889;67.864;24.990;2023-09-19T08:54:03;7.10;99.90
30063;DHT22;16889;67.864;24.990;2023-09-19T08:58:55;7.10;99.90
30063;DHT22;16889;67.864;24.990;2023-09-19T09:03:45;7.00;99.90
30063;DHT22;16889;67.864;24.990;2023-09-19T09:08:32;7.00;99.90
30063;DHT22;16889;67.864;24.990;2023-09-19T09:13:18;6.90;99.90
30063;DHT22;16889;67.864;24.990;2023-09-19T09:18:04;6.90;99.90
30063;DHT22;16889;67.864;24.990;2023-09-19T09:22:55;6.80;99.90
30063;DHT22;16889;67.864;24.990;2023-09-19T09:27:41;6.90;99.90
30063;DHT22;16889;67.864;24.990;2023-09-19T09:32:30;6.80;99.90
30063;DHT22;16889;67.864;24.990;2023-09-19T09:37:21;6.60;99.90
30063;DHT22;16889;67.864;24.990;2023-09-19T09:42:08;6.50;99.90
30063;DHT22;16889;67.864;24.990;2023-09-19T09:46:55;6.40;99.90
30063;DHT22;16889;67.864;24.990;2023-09-19T09:52:06;6.50;99.90
30063;DHT22;16889;67.864;24.990;2023-09-19T09:56:59;6.50;99.90
30063;DHT22;16889;67.864;24.990;2023-09-19T10:01:48;6.50;99.90
30063;DHT22;16889;67.864;24.990;2023-09-19T10:06:42;6.50;99.90
30063;DHT22;16889;67.864;24.990;2023-09-19T10:11:34;6.40;99.90
30063;DHT22;16889;67.864;24.990;2023-09-19T10:16:23;6.40;99.90
30063;DHT22;16889;67.864;24.990;2023-09-19T10:21:10;6.40;99.90
30063;DHT22;16889;67.864;24.990;2023-09-19T10:25:57;6.20;99.90
30063;DHT22;16889;67.864;24.990;2023-09-19T10:30:48;6.00;99.90
30063;DHT22;16889;67.864;24.990;2023-09-19T10:35:38;5.90;99.90
30063;DHT22;16889;67.864;24.990;2023-09-19T10:40:28;5.90;99.90
30063;DHT22;16889;67.864;24.990;2023-09-19T10:45:20;5.80;99.90
30063;DHT22;16889;67.864;24.990;2023-09-19T10:50:08;5.80;99.90
30063;DHT22;16889;67.864;24.990;2023-09-19T10:54:56;5.70;99.90
30063;DHT22;16889;67.864;24.990;2023-09-19T11:00:04;5.70;99.90
30063;DHT22;16889;67.864;24.990;2023-09-19T11:05:13;5.70;99.90
30063;DHT22;16889;67.864;24.990;2023-09-19T11:09:58;5.70;99.90
30063;DHT22;16889;67.864;24.990;2023-09-19T11:14:47;5.70;99.90
30063;DHT22;16889;67.864;24.990;2023-09-19T11:30:29;5.70;99.90
30063;DHT22;16889;67.864;24.990;2023-09-19T11:35:18;5.70;99.90
30063;DHT22;16889;67.864;24.990;2023-09-19T11:40:09;5.60;99.90
30063;DHT22;16889;67.864;24.990;2023-09-19T11:45:01;5.60;99.90
30063;DHT22;16889;67.864;24.990;2023-09-19T11:49:47;5.50;99.90
30063;DHT22;16889;67.864;24.990;2023-09-19T11:54:35;5.50;99.90
30063;DHT22;16889;67.864;24.990;2023-09-19T11:59:30;5.40;99.90
30063;DHT22;16889;67.864;24.990;2023-09-19T12:04:18;5.30;99.90
30063;DHT22;16889;67.864;24.990;2023-09-19T12:09:05;5.20;99.90
30063;DHT22;16889;67.864;24.990;2023-09-19T12:13:57;5.10;99.90
30063;DHT22;16889;67.864;24.990;2023-09-19T12:18:46;5.00;99.90
30063;DHT22;16889;67.864;24.990;2023-09-19T12:23:33;4.90;99.90
30063;DHT22;16889;67.864;24.990;2023-09-19T12:28:27;4.90;99.90
30063;DHT22;16889;67.864;24.990;2023-09-19T12:33:19;4.90;99.90
30063;DHT22;16889;67.864;24.990;2023-09-19T12:38:07;4.80;99.90
30063;DHT22;16889;67.864;24.990;2023-09-19T12:42:54;4.80;99.90
30063;DHT22;16889;67.864;24.990;2023-09-19T12:53:06;4.80;99.90
30063;DHT22;16889;67.864;24.990;2023-09-19T12:57:56;4.70;99.90
30063;DHT22;16889;67.864;24.990;2023-09-19T13:03:11;4.60;99.90
30063;DHT22;16889;67.864;24.990;2023-09-19T13:08:38;4.60;99.90
30063;DHT22;16889;67.864;24.990;2023-09-19T13:13:24;4.50;99.90
30063;DHT22;16889;67.864;24.990;2023-09-19T13:18:15;4.50;99.90
30063;DHT22;16889;67.864;24.990;2023-09-19T13:23:01;4.50;99.90
30063;DHT22;16889;67.864;24.990;2023-09-19T13:27:57;4.50;99.90
30063;DHT22;16889;67.864;24.990;2023-09-19T13:32:44;4.50;99.90
30063;DHT22;16889;67.864;24.990;2023-09-19T13:37:33;4.40;99.90
30063;DHT22;16889;67.864;24.990;2023-09-19T13:42:24;4.40;99.90
30063;DHT22;16889;67.864;24.990;2023-09-19T13:47:20;4.40;99.90
30063;DHT22;16889;67.864;24.990;2023-09-19T13:52:10;4.30;99.90
30063;DHT22;16889;67.864;24.990;2023-09-19T13:56:59;4.20;99.90
30063;DHT22;16889;67.864;24.990;2023-09-19T14:01:52;4.10;99.90
30063;DHT22;16889;67.864;24.990;2023-09-19T14:06:42;4.10;99.90
30063;DHT22;16889;67.864;24.990;2023-09-19T14:11:28;4.10;99.90
30063;DHT22;16889;67.864;24.990;2023-09-19T14:16:14;4.00;99.90
30063;DHT22;16889;67.864;24.990;2023-09-19T14:21:06;3.90;99.90
30063;DHT22;16889;67.864;24.990;2023-09-19T14:25:54;3.90;99.90
30063;DHT22;16889;67.864;24.990;2023-09-19T14:30:40;3.80;99.90
30063;DHT22;16889;67.864;24.990;2023-09-19T14:35:26;3.80;99.90
30063;DHT22;16889;67.864;24.990;2023-09-19T14:40:12;3.80;99.90
30063;DHT22;16889;67.864;24.990;2023-09-19T14:45:01;3.70;99.90
30063;DHT22;16889;67.864;24.990;2023-09-19T14:49:47;3.60;99.90
30063;DHT22;16889;67.864;24.990;2023-09-19T14:54:33;3.60;99.90
30063;DHT22;16889;67.864;24.990;2023-09-19T14:59:19;3.60;99.90
30063;DHT22;16889;67.864;24.990;2023-09-19T15:04:06;3.60;99.90
30063;DHT22;16889;67.864;24.990;2023-09-19T15:08:51;3.60;99.90
30063;DHT22;16889;67.864;24.990;2023-09-19T15:13:37;3.50;99.90
30063;DHT22;16889;67.864;24.990;2023-09-19T15:18:23;3.40;99.90
30063;DHT22;16889;67.864;24.990;2023-09-19T15:23:09;3.40;99.90
30063;DHT22;16889;67.864;24.990;2023-09-19T15:27:55;3.30;99.90
30063;DHT22;16889;67.864;24.990;2023-09-19T15:32:43;3.30;99.90
30063;DHT22;16889;67.864;24.990;2023-09-19T15:37:31;3.20;99.90
30063;DHT22;16889;67.864;24.990;2023-09-19T15:42:17;3.00;99.90
30063;DHT22;16889;67.864;24.990;2023-09-19T15:47:03;2.90;99.90
30063;DHT22;16889;67.864;24.990;2023-09-19T15:51:52;2.80;99.90
30063;DHT22;16889;67.864;24.990;2023-09-19T15:56:38;2.70;99.90
30063;DHT22;16889;67.864;24.990;2023-09-19T16:01:26;2.60;99.90
30063;DHT22;16889;67.864;24.990;2023-09-19T16:06:25;2.50;99.90
30063;DHT22;16889;67.864;24.990;2023-09-19T16:11:11;2.30;99.90
30063;DHT22;16889;67.864;24.990;2023-09-19T16:15:58;2.20;99.90
30063;DHT22;16889;67.864;24.990;2023-09-19T16:20:44;2.10;99.90
30063;DHT22;16889;67.864;24.990;2023-09-19T16:25:30;2.00;99.90
30063;DHT22;16889;67.864;24.990;2023-09-19T16:30:16;1.90;99.90
30063;DHT22;16889;67.864;24.990;2023-09-19T16:35:04;1.80;99.90
30063;DHT22;16889;67.864;24.990;2023-09-19T16:39:50;1.80;99.90
30063;DHT22;16889;67.864;24.990;2023-09-19T16:44:36;1.70;99.90
30063;DHT22;16889;67.864;24.990;2023-09-19T16:49:22;1.70;99.90
30063;DHT22;16889;67.864;24.990;2023-09-19T16:54:07;1.60;99.90
30063;DHT22;16889;67.864;24.990;2023-09-19T16:58:54;1.60;99.90
30063;DHT22;16889;67.864;24.990;2023-09-19T17:03:41;1.50;99.90
30063;DHT22;16889;67.864;24.990;2023-09-19T17:08:29;1.50;99.90
30063;DHT22;16889;67.864;24.990;2023-09-19T17:13:15;1.50;99.90
30063;DHT22;16889;67.864;24.990;2023-09-19T17:18:01;1.50;99.90
30063;DHT22;16889;67.864;24.990;2023-09-19T17:22:46;1.40;99.90
30063;DHT22;16889;67.864;24.990;2023-09-19T17:27:32;1.40;99.90
30063;DHT22;16889;67.864;24.990;2023-09-19T17:32:18;1.40;99.90
30063;DHT22;16889;67.864;24.990;2023-09-19T17:37:04;1.40;99.90
30063;DHT22;16889;67.864;24.990;2023-09-19T17:41:50;1.40;99.90
30063;DHT22;16889;67.864;24.990;2023-09-19T17:46:37;1.40;99.90
30063;DHT22;16889;67.864;24.990;2023-09-19T17:51:24;1.40;99.90
30063;DHT22;16889;67.864;24.990;2023-09-19T17:56:12;1.40;99.90
